Time;durP1;ratioP1;P1;durP2;ratioP2;P2;SDS_P1;SDS_P2;PMS_P1;PMS_P2;Temp;Humidity;BMP_temperature;BMP_pressure;BME280_temperature;BME280_humidity;BME280_pressure;Samples;Min_cycle;Max_cycle;Signal;HPM_P1;HPM_P2
2023/01/20 00:00:10;;;;;;;0.10;0.10;;;1.00;99.90;;;;;;5042340;28;20060;-75
2023/01/20 00:02:36;;;;;;;0.10;0.10;;;0.90;99.90;;;;;;5054003;28;20104;-75
2023/01/20 00:05:02;;;;;;;0.08;0.08;;;1.00;99.90;;;;;;5016257;28;20082;-75
2023/01/20 00:07:27;;;;;;;0.10;0.10;;;1.00;99.90;;;;;;5039540;28;20031;-74
2023/01/20 00:09:53;;;;;;;0.10;0.10;;;0.90;99.90;;;;;;5039239;28;20044;-75
2023/01/20 00:12:19;;;;;;;0.10;0.10;;;0.90;99.90;;;;;;5041832;28;20033;-75
2023/01/20 00:14:45;;;;;;;0.15;0.15;;;0.90;99.90;;;;;;5040501;28;20040;-76
2023/01/20 00:17:11;;;;;;;0.10;0.10;;;0.70;99.90;;;;;;5037720;28;20021;-75
2023/01/20 00:19:37;;;;;;;0.22;0.22;;;0.50;99.90;;;;;;5035371;28;20033;-75
2023/01/20 00:22:02;;;;;;;0.10;0.10;;;0.40;99.90;;;;;;5021548;28;20032;-74
2023/01/20 00:24:28;;;;;;;0.13;0.13;;;0.10;99.90;;;;;;5042292;28;20076;-75
2023/01/20 00:26:54;;;;;;;0.43;0.43;;;-0.10;99.90;;;;;;5038421;28;20032;-75
2023/01/20 00:29:19;;;;;;;0.10;0.10;;;-0.20;99.90;;;;;;5038596;28;20033;-75
2023/01/20 00:31:45;;;;;;;0.10;0.10;;;-0.30;99.90;;;;;;5043072;28;20419;-75
2023/01/20 00:34:11;;;;;;;0.15;0.15;;;-0.30;99.90;;;;;;5043229;28;20021;-75
2023/01/20 00:36:37;;;;;;;0.00;0.00;;;-0.50;99.90;;;;;;5033143;28;20018;-75
2023/01/20 00:39:03;;;;;;;0.28;0.28;;;-0.40;99.90;;;;;;5046884;28;20120;-76
2023/01/20 00:41:29;;;;;;;0.10;0.10;;;-0.30;99.90;;;;;;5034958;28;20022;-76
2023/01/20 00:43:55;;;;;;;0.10;0.10;;;-0.40;99.90;;;;;;5045863;28;20206;-76
2023/01/20 00:46:22;;;;;;;0.10;0.10;;;-0.40;99.90;;;;;;5046003;28;20476;-76
2023/01/20 00:48:48;;;;;;;0.33;0.33;;;-0.30;99.90;;;;;;5030642;28;20087;-75
2023/01/20 00:51:14;;;;;;;0.10;0.10;;;-0.30;99.90;;;;;;5030080;28;20032;-75
2023/01/20 00:53:40;;;;;;;0.47;0.47;;;-0.30;99.90;;;;;;5031403;28;20241;-75
2023/01/20 00:56:06;;;;;;;0.10;0.10;;;-0.30;99.90;;;;;;5031725;28;20083;-75
2023/01/20 00:58:32;;;;;;;0.32;0.32;;;-0.30;99.90;;;;;;5045867;28;20059;-75
2023/01/20 01:00:58;;;;;;;0.10;0.10;;;-0.40;99.90;;;;;;5040522;28;20021;-76
2023/01/20 01:03:24;;;;;;;0.10;0.10;;;-0.30;99.90;;;;;;5033790;28;20030;-75
2023/01/20 01:05:50;;;;;;;0.10;0.10;;;-0.30;99.90;;;;;;5032881;28;20022;-75
2023/01/20 01:08:15;;;;;;;0.55;0.55;;;-0.20;99.90;;;;;;5033997;28;20090;-76
2023/01/20 01:10:41;;;;;;;0.20;0.20;;;-0.10;99.90;;;;;;5041250;28;20025;-74
2023/01/20 01:13:07;;;;;;;0.10;0.10;;;0.10;99.90;;;;;;5038600;28;20036;-74
2023/01/20 01:15:33;;;;;;;0.10;0.10;;;0.10;99.90;;;;;;5037397;28;20022;-74
2023/01/20 01:17:59;;;;;;;0.20;0.20;;;0.20;99.90;;;;;;5032913;28;20033;-75
2023/01/20 01:20:26;;;;;;;0.10;0.10;;;0.30;99.90;;;;;;5041455;28;20078;-75
2023/01/20 01:22:51;;;;;;;0.10;0.10;;;0.30;99.90;;;;;;5045980;28;20116;-74
2023/01/20 01:25:18;;;;;;;0.10;0.10;;;0.50;99.90;;;;;;5040368;28;20105;-74
2023/01/20 01:27:43;;;;;;;0.10;0.10;;;0.50;99.90;;;;;;5044755;28;20021;-75
2023/01/20 01:30:10;;;;;;;0.10;0.10;;;0.60;99.90;;;;;;5041608;28;20029;-76
2023/01/20 01:32:36;;;;;;;0.13;0.13;;;0.50;99.90;;;;;;5044689;28;20368;-75
2023/01/20 01:35:01;;;;;;;0.10;0.10;;;0.60;99.90;;;;;;5045548;28;20075;-75
2023/01/20 01:37:28;;;;;;;0.10;0.10;;;0.60;99.90;;;;;;5045565;28;20104;-76
2023/01/20 01:39:53;;;;;;;0.10;0.10;;;0.60;99.90;;;;;;5045510;28;20036;-76
2023/01/20 01:42:23;;;;;;;0.10;0.10;;;0.70;99.90;;;;;;5039749;28;20107;-77
2023/01/20 01:45:19;;;;;;;0.10;0.10;;;0.70;99.90;;;;;;5039736;28;20036;-76
2023/01/20 01:47:52;;;;;;;0.10;0.10;;;0.70;99.90;;;;;;5037039;28;20025;-78
2023/01/20 01:50:23;;;;;;;0.10;0.10;;;0.60;99.90;;;;;;5040493;28;20029;-76
2023/01/20 01:52:52;;;;;;;0.20;0.20;;;0.50;99.90;;;;;;5029478;28;20208;-77
2023/01/20 01:55:21;;;;;;;0.05;0.05;;;0.50;99.90;;;;;;5035648;28;20017;-76
2023/01/20 01:57:49;;;;;;;0.40;0.40;;;0.50;99.90;;;;;;5044960;28;20029;-77
2023/01/20 02:00:15;;;;;;;0.10;0.10;;;0.60;99.90;;;;;;5013425;28;20140;-77
2023/01/20 02:02:42;;;;;;;15.02;3.13;;;0.50;99.90;;;;;;5040387;28;20029;-77
2023/01/20 02:05:09;;;;;;;1.05;0.50;;;0.40;99.90;;;;;;5040866;28;20025;-75
2023/01/20 02:07:35;;;;;;;0.10;0.10;;;0.50;99.90;;;;;;5022369;28;20029;-77
2023/01/20 02:10:01;;;;;;;0.40;0.40;;;0.50;99.90;;;;;;5025244;28;20033;-76
2023/01/20 02:12:28;;;;;;;0.10;0.10;;;0.40;99.90;;;;;;5037833;28;20891;-75
2023/01/20 02:14:56;;;;;;;;;;;0.10;99.90;;;;;;5035296;28;20027;-76
2023/01/20 02:17:30;;;;;;;;;;;-0.10;99.90;;;;;;5041511;28;19905;-76
2023/01/20 02:20:14;;;;;;;;;;;-0.20;99.90;;;;;;5038439;28;19909;-76
2023/01/20 02:22:45;;;;;;;;;;;-0.10;99.90;;;;;;5038780;28;19982;-77
2023/01/20 02:25:26;;;;;;;;;;;-0.10;99.90;;;;;;5038149;28;19948;-76
2023/01/20 02:28:10;;;;;;;;;;;-0.10;99.90;;;;;;5043166;28;19951;-75
2023/01/20 02:30:54;;;;;;;;;;;0.00;99.90;;;;;;5036803;28;19931;-75
2023/01/20 02:33:25;;;;;;;;;;;0.30;99.90;;;;;;5040052;28;19975;-76
2023/01/20 02:35:54;;;;;;;;;;;0.60;99.90;;;;;;5028760;28;19909;-77
2023/01/20 02:38:22;;;;;;;;;;;0.70;99.90;;;;;;5042162;28;19912;-76
2023/01/20 02:40:47;;;;;;;;;;;0.70;99.90;;;;;;5041097;28;19915;-76
2023/01/20 02:43:29;;;;;;;;;;;0.70;99.90;;;;;;5044828;28;19909;-75
2023/01/20 02:46:10;;;;;;;;;;;0.50;99.90;;;;;;5044788;28;19908;-76
2023/01/20 02:48:43;;;;;;;;;;;0.20;99.90;;;;;;5044144;28;19913;-76
2023/01/20 02:51:08;;;;;;;;;;;0.20;99.90;;;;;;5034138;28;19915;-75
2023/01/20 02:53:39;;;;;;;;;;;0.40;99.90;;;;;;5029403;28;19909;-74
2023/01/20 02:56:37;;;;;;;;;;;0.10;99.90;;;;;;5029344;28;20020;-76
2023/01/20 02:59:09;;;;;;;;;;;0.00;99.90;;;;;;5037361;28;19933;-76
2023/01/20 03:01:40;;;;;;;;;;;-0.10;99.90;;;;;;5024048;28;19941;-75
2023/01/20 03:04:08;;;;;;;;;;;-0.20;99.90;;;;;;5024420;28;20662;-74
2023/01/20 03:06:36;;;;;;;;;;;-0.20;99.90;;;;;;5014784;28;19909;-74
2023/01/20 03:09:05;;;;;;;;;;;-0.20;99.90;;;;;;5016644;28;20376;-74
2023/01/20 03:11:32;;;;;;;;;;;-0.40;99.90;;;;;;5014774;28;19916;-73
2023/01/20 03:14:07;;;;;;;;;;;-0.50;99.90;;;;;;5019184;28;20024;-74
2023/01/20 03:16:33;;;;;;;;;;;-0.50;99.90;;;;;;5021547;28;19909;-74
2023/01/20 03:18:58;;;;;;;;;;;-0.20;99.90;;;;;;5020180;28;19920;-73
2023/01/20 03:21:24;;;;;;;;;;;-0.10;99.90;;;;;;5017176;28;19920;-74
2023/01/20 03:23:51;;;;;;;;;;;-0.30;99.90;;;;;;5018362;28;19905;-74
2023/01/20 03:26:17;;;;;;;;;;;-0.30;99.90;;;;;;5015792;28;19916;-73
2023/01/20 03:28:43;;;;;;;;;;;-0.10;99.90;;;;;;5015180;28;19913;-73
2023/01/20 03:31:17;;;;;;;;;;;0.20;99.90;;;;;;5019186;28;20609;-74
2023/01/20 03:33:43;;;;;;;;;;;0.40;99.90;;;;;;5017970;28;19913;-73
2023/01/20 03:36:09;;;;;;;;;;;0.50;99.90;;;;;;5055442;28;19908;-73
2023/01/20 03:38:35;;;;;;;;;;;0.70;99.90;;;;;;5023644;28;19908;-74
2023/01/20 03:41:13;;;;;;;;;;;0.70;99.90;;;;;;5024157;28;19909;-74
2023/01/20 03:43:54;;;;;;;;;;;0.60;99.90;;;;;;5022899;28;19913;-74
2023/01/20 03:46:27;;;;;;;;;;;0.50;99.90;;;;;;5012397;28;20701;-75
2023/01/20 03:49:01;;;;;;;;;;;0.40;99.90;;;;;;5020335;28;20288;-75
2023/01/20 03:51:32;;;;;;;;;;;0.60;99.90;;;;;;5020112;28;19921;-75
2023/01/20 03:53:57;;;;;;;;;;;0.60;99.90;;;;;;5022160;28;19913;-74
2023/01/20 03:56:34;;;;;;;;;;;0.60;99.90;;;;;;5023958;28;19912;-74
2023/01/20 03:59:00;;;;;;;;;;;0.80;99.90;;;;;;5017725;28;19931;-74
2023/01/20 04:01:29;;;;;;;;;;;0.90;99.90;;;;;;5033031;28;19944;-74
2023/01/20 04:03:55;;;;;;;;;;;0.90;99.90;;;;;;5035537;28;20651;-74
2023/01/20 04:06:22;;;;;;;;;;;0.90;99.90;;;;;;5041330;28;19915;-74
2023/01/20 04:08:52;;;;;;;;;;;1.00;99.90;;;;;;5029178;28;19967;-74
2023/01/20 04:11:18;;;;;;;;;;;0.90;99.90;;;;;;5046410;28;20291;-75
2023/01/20 04:13:43;;;;;;;;;;;0.70;99.90;;;;;;5047458;28;19909;-74
2023/01/20 04:16:11;;;;;;;;;;;0.40;99.90;;;;;;5047207;28;20325;-74
2023/01/20 04:18:39;;;;;;;;;;;0.10;99.90;;;;;;5040886;28;19912;-74
2023/01/20 04:21:05;;;;;;;;;;;0.00;99.90;;;;;;5023262;28;19948;-75
2023/01/20 04:23:32;;;;;;;;;;;-0.20;99.90;;;;;;5043436;28;20407;-74
2023/01/20 04:25:58;;;;;;;;;;;-0.30;99.90;;;;;;5047120;28;20272;-74
2023/01/20 04:28:24;;;;;;;;;;;-0.20;99.90;;;;;;5037731;28;19989;-74
2023/01/20 04:30:50;;;;;;;;;;;0.10;99.90;;;;;;5043160;28;19913;-75
2023/01/20 04:33:15;;;;;;;;;;;0.40;99.90;;;;;;5038828;28;20289;-75
2023/01/20 04:35:41;;;;;;;;;;;0.50;99.90;;;;;;5047062;28;20364;-75
2023/01/20 04:38:07;;;;;;;;;;;0.40;99.90;;;;;;5047158;28;20018;-74
2023/01/20 04:40:32;;;;;;;;;;;0.20;99.90;;;;;;5038499;28;20338;-75
2023/01/20 04:42:58;;;;;;;;;;;0.00;99.90;;;;;;5047564;28;20059;-73
2023/01/20 04:45:23;;;;;;;;;;;-0.10;99.90;;;;;;5042887;28;19967;-73
2023/01/20 04:47:49;;;;;;;;;;;-0.20;99.90;;;;;;5036940;28;19921;-74
2023/01/20 04:50:15;;;;;;;;;;;-0.30;99.90;;;;;;5045865;28;19913;-76
2023/01/20 04:52:41;;;;;;;;;;;-0.30;99.90;;;;;;5041567;28;19913;-74
2023/01/20 04:55:06;;;;;;;;;;;-0.30;99.90;;;;;;5044407;28;19924;-74
2023/01/20 04:57:32;;;;;;;;;;;-0.10;99.90;;;;;;5034286;28;19904;-73
2023/01/20 04:59:58;;;;;;;;;;;0.10;99.90;;;;;;5045450;28;19928;-74
2023/01/20 05:02:23;;;;;;;;;;;0.20;99.90;;;;;;5044680;28;19916;-73
2023/01/20 05:04:49;;;;;;;;;;;0.20;99.90;;;;;;5041032;28;19985;-74
2023/01/20 05:07:14;;;;;;;;;;;0.40;99.90;;;;;;5038390;28;19982;-75
2023/01/20 05:09:40;;;;;;;;;;;0.20;99.90;;;;;;5027326;28;19916;-75
2023/01/20 05:12:06;;;;;;;;;;;-0.20;99.90;;;;;;5039220;28;19960;-74
2023/01/20 05:14:31;;;;;;;;;;;-0.40;99.90;;;;;;5044937;28;19915;-75
2023/01/20 05:16:57;;;;;;;;;;;-0.50;99.90;;;;;;5039341;28;20297;-74
2023/01/20 05:19:22;;;;;;;;;;;-0.60;99.90;;;;;;5046119;28;19920;-74
2023/01/20 05:21:48;;;;;;;;;;;-0.70;99.90;;;;;;5034754;28;19955;-74
2023/01/20 05:24:14;;;;;;;;;;;-0.70;99.90;;;;;;5040332;28;20007;-74
2023/01/20 05:26:39;;;;;;;;;;;-0.90;99.90;;;;;;5047158;28;19912;-75
2023/01/20 05:29:05;;;;;;;;;;;-0.80;99.90;;;;;;5046123;28;19999;-75
2023/01/20 05:31:30;;;;;;;;;;;-0.90;99.90;;;;;;5042541;28;19912;-76
2023/01/20 05:33:56;;;;;;;;;;;-0.90;99.90;;;;;;5045513;28;19939;-76
2023/01/20 05:36:22;;;;;;;;;;;-0.90;99.90;;;;;;5045519;28;19908;-74
2023/01/20 05:38:47;;;;;;;;;;;-0.90;99.90;;;;;;5029842;28;19913;-75
2023/01/20 05:41:13;;;;;;;;;;;-0.90;99.90;;;;;;5027987;28;19924;-74
2023/01/20 05:43:39;;;;;;;;;;;-0.70;99.90;;;;;;5031928;28;19905;-74
2023/01/20 05:46:04;;;;;;;;;;;-0.40;99.90;;;;;;5045313;28;19908;-74
2023/01/20 05:48:30;;;;;;;;;;;-0.10;99.90;;;;;;5039572;28;19917;-75
2023/01/20 05:50:55;;;;;;;;;;;0.20;99.90;;;;;;5045315;28;19921;-74
2023/01/20 05:53:21;;;;;;;;;;;0.40;99.90;;;;;;5042235;28;19928;-76
2023/01/20 05:55:47;;;;;;;;;;;0.40;99.90;;;;;;5035752;28;19936;-76
2023/01/20 05:58:12;;;;;;;;;;;0.50;99.90;;;;;;5038520;28;19943;-75
2023/01/20 06:00:38;;;;;;;;;;;0.60;99.90;;;;;;5038147;28;20404;-75
2023/01/20 06:03:04;;;;;;;;;;;0.60;99.90;;;;;;5042897;28;19912;-74
2023/01/20 06:05:30;;;;;;;;;;;0.70;99.90;;;;;;5035867;28;19979;-76
2023/01/20 06:07:55;;;;;;;;;;;0.70;99.90;;;;;;5038027;28;19916;-75
2023/01/20 06:10:24;;;;;;;;;;;0.60;99.90;;;;;;5036080;28;19920;-76
2023/01/20 06:12:53;;;;;;;;;;;0.60;99.90;;;;;;5041230;28;20710;-76
2023/01/20 06:15:19;;;;;;;;;;;0.50;99.90;;;;;;5041843;28;19916;-78
2023/01/20 06:17:45;;;;;;;;;;;0.20;99.90;;;;;;5037481;28;19913;-78
2023/01/20 06:20:11;;;;;;;;;;;-0.10;99.90;;;;;;5038646;28;19959;-79
2023/01/20 06:22:36;;;;;;;;;;;-0.20;99.90;;;;;;5034966;28;19926;-76
2023/01/20 06:25:02;;;;;;;;;;;-0.20;99.90;;;;;;5033185;28;20300;-76
2023/01/20 06:27:28;;;;;;;;;;;0.10;99.90;;;;;;5038184;28;19916;-76
2023/01/20 06:29:53;;;;;;;;;;;0.30;99.90;;;;;;5042931;28;19921;-76
2023/01/20 06:32:19;;;;;;;;;;;0.40;99.90;;;;;;5043918;28;19913;-76
2023/01/20 06:34:44;;;;;;;;;;;0.40;99.90;;;;;;5040934;28;19959;-76
2023/01/20 06:37:10;;;;;;;;;;;0.40;99.90;;;;;;5042551;28;20635;-76
2023/01/20 06:39:36;;;;;;;;;;;0.40;99.90;;;;;;5039601;28;20387;-77
2023/01/20 06:42:02;;;;;;;;;;;0.60;99.90;;;;;;5035691;28;19962;-76
2023/01/20 06:44:28;;;;;;;;;;;0.70;99.90;;;;;;5026334;28;19909;-77
2023/01/20 06:46:56;;;;;;;;;;;0.60;99.90;;;;;;5026389;28;20011;-77
2023/01/20 06:49:21;;;;;;;;;;;0.50;99.90;;;;;;5028192;28;19967;-75
2023/01/20 06:51:48;;;;;;;;;;;0.60;99.90;;;;;;5033560;28;19952;-75
2023/01/20 06:54:14;;;;;;;;;;;0.50;99.90;;;;;;5033168;28;20283;-75
2023/01/20 06:56:39;;;;;;;;;;;0.40;99.90;;;;;;5033329;28;21009;-75
2023/01/20 06:59:05;;;;;;;;;;;0.00;99.90;;;;;;5047048;28;19964;-75
2023/01/20 07:01:30;;;;;;;;;;;-0.10;99.90;;;;;;5040762;28;20010;-75
2023/01/20 07:03:56;;;;;;;;;;;0.00;99.90;;;;;;5044723;28;19913;-77
2023/01/20 07:06:22;;;;;;;;;;;0.00;99.90;;;;;;5044236;28;19905;-74
2023/01/20 07:08:47;;;;;;;;;;;0.20;99.90;;;;;;5054158;28;19912;-73
2023/01/20 07:11:13;;;;;;;;;;;0.30;99.90;;;;;;5034901;28;19966;-74
2023/01/20 07:13:39;;;;;;;;;;;0.30;99.90;;;;;;5031007;28;19954;-74
2023/01/20 07:16:04;;;;;;;;;;;0.30;99.90;;;;;;5017467;28;19909;-75
2023/01/20 07:18:30;;;;;;;;;;;0.20;99.90;;;;;;5035687;28;19951;-75
2023/01/20 07:20:56;;;;;;;;;;;0.30;99.90;;;;;;5031663;28;19913;-75
2023/01/20 07:23:22;;;;;;;;;;;0.30;99.90;;;;;;5031626;28;19995;-75
2023/01/20 07:25:55;;;;;;;;;;;0.40;99.90;;;;;;5032898;28;19908;-73
2023/01/20 07:28:21;;;;;;;;;;;0.50;99.90;;;;;;5040850;28;19908;-73
2023/01/20 07:30:46;;;;;;;;;;;0.40;99.90;;;;;;5032510;28;19917;-72
2023/01/20 07:33:12;;;;;;;;;;;0.50;99.90;;;;;;5034200;28;19951;-73
2023/01/20 07:35:37;;;;;;;;;;;0.50;99.90;;;;;;5043444;28;19944;-73
2023/01/20 07:38:03;;;;;;;;;;;0.70;99.90;;;;;;5032889;28;19984;-72
2023/01/20 07:40:28;;;;;;;;;;;0.70;99.90;;;;;;5037544;28;20369;-72
2023/01/20 07:42:54;;;;;;;;;;;0.50;99.90;;;;;;5035606;28;19948;-72
2023/01/20 07:45:20;;;;;;;;;;;0.40;99.90;;;;;;5038931;28;19909;-74
2023/01/20 07:47:45;;;;;;;;;;;0.40;99.90;;;;;;5035553;28;19913;-73
2023/01/20 07:50:11;;;;;;;;;;;0.60;99.90;;;;;;5029752;28;20015;-73
2023/01/20 07:52:36;;;;;;;;;;;0.50;99.90;;;;;;5026328;28;19916;-74
2023/01/20 07:55:02;;;;;;;;;;;0.60;99.90;;;;;;5039098;28;19913;-73
2023/01/20 07:57:31;;;;;;;;;;;0.50;99.90;;;;;;5013139;28;19955;-72
2023/01/20 07:59:56;;;;;;;;;;;0.50;99.90;;;;;;5041573;28;19929;-72
2023/01/20 08:02:22;;;;;;;;;;;0.50;99.90;;;;;;5042199;28;19962;-72
2023/01/20 08:04:47;;;;;;;;;;;0.60;99.90;;;;;;5032237;28;19913;-73
2023/01/20 08:07:13;;;;;;;;;;;0.50;99.90;;;;;;5027722;28;19979;-72
2023/01/20 08:09:40;;;;;;;;;;;0.70;99.90;;;;;;5033397;28;19935;-73
2023/01/20 08:12:06;;;;;;;;;;;0.80;99.90;;;;;;5036238;28;19913;-73
2023/01/20 08:14:31;;;;;;;;;;;0.80;99.90;;;;;;5034174;28;20423;-72
2023/01/20 08:16:58;;;;;;;;;;;0.90;99.90;;;;;;5041721;28;19956;-73
2023/01/20 08:19:27;;;;;;;;;;;1.00;99.90;;;;;;5034785;28;19951;-72
2023/01/20 08:21:53;;;;;;;;;;;0.90;99.90;;;;;;5041227;28;19905;-72
2023/01/20 08:24:18;;;;;;;;;;;1.00;99.90;;;;;;5043033;28;19909;-72
2023/01/20 08:26:44;;;;;;;;;;;1.00;99.90;;;;;;5041341;28;19994;-72
2023/01/20 08:29:09;;;;;;;;;;;0.90;99.90;;;;;;5040950;28;20010;-73
2023/01/20 08:31:35;;;;;;;;;;;1.00;99.90;;;;;;5043369;28;19982;-73
2023/01/20 08:34:01;;;;;;;;;;;1.00;99.90;;;;;;5038496;28;19912;-73
2023/01/20 08:36:28;;;;;;;;;;;1.20;99.90;;;;;;5031283;28;20356;-72
2023/01/20 08:38:55;;;;;;;;;;;1.20;99.90;;;;;;5041310;28;19908;-72
2023/01/20 08:41:22;;;;;;;;;;;1.10;99.90;;;;;;5043098;28;20067;-73
2023/01/20 08:43:48;;;;;;;;;;;1.20;99.90;;;;;;5031176;28;20425;-73
2023/01/20 08:46:14;;;;;;;;;;;1.40;99.90;;;;;;5042789;28;19994;-72
2023/01/20 08:48:41;;;;;;;;;;;1.30;99.90;;;;;;5042208;28;19913;-74
2023/01/20 08:51:09;;;;;;;;;;;1.20;99.90;;;;;;5032185;28;19924;-72
2023/01/20 08:53:34;;;;;;;;;;;1.10;99.90;;;;;;5040546;28;19909;-74
2023/01/20 08:56:00;;;;;;;;;;;1.10;99.90;;;;;;5043809;28;20378;-74
2023/01/20 08:58:27;;;;;;;;;;;1.10;99.90;;;;;;5045958;28;19928;-72
2023/01/20 09:00:53;;;;;;;;;;;1.10;99.90;;;;;;5046320;28;20430;-73
2023/01/20 09:03:18;;;;;;;;;;;1.10;99.90;;;;;;5046814;28;19970;-72
2023/01/20 09:05:44;;;;;;;;;;;1.40;99.90;;;;;;5045979;28;19913;-73
2023/01/20 09:08:10;;;;;;;;;;;1.50;99.90;;;;;;5020335;28;19916;-73
2023/01/20 09:10:36;;;;;;;;;;;1.50;99.90;;;;;;5046120;28;19921;-72
2023/01/20 09:13:01;;;;;;;;;;;1.80;99.90;;;;;;5038487;28;20356;-73
2023/01/20 09:15:27;;;;;;;;;;;2.40;99.90;;;;;;5045456;28;19915;-72
2023/01/20 09:17:52;;;;;;;;;;;2.00;99.90;;;;;;5045729;28;19916;-74
2023/01/20 09:20:18;;;;;;;;;;;2.20;99.90;;;;;;5045471;28;19932;-72
2023/01/20 09:22:43;;;;;;;;;;;2.50;99.90;;;;;;5027104;28;19907;-71
2023/01/20 09:25:09;;;;;;;;;;;2.70;99.90;;;;;;5045234;28;19909;-72
2023/01/20 09:27:35;;;;;;;;;;;3.00;99.90;;;;;;5045922;28;19913;-74
2023/01/20 09:30:01;;;;;;;;;;;2.40;99.90;;;;;;5045016;28;20375;-72
2023/01/20 09:32:27;;;;;;;;;;;2.50;99.90;;;;;;5042248;28;19943;-72
2023/01/20 09:34:52;;;;;;;;;;;2.60;99.90;;;;;;5045740;28;19909;-72
2023/01/20 09:45:52;;;;;;;;;;;3.10;99.90;;;;;;5027891;28;19963;-73
2023/01/20 09:54:08;;;;;;;;;;;3.50;99.90;;;;;;5036104;28;19958;-73
2023/01/20 09:56:37;;;;;;;;;;;3.30;99.90;;;;;;5045065;28;19995;-72
2023/01/20 09:59:08;;;;;;;;;;;3.30;99.90;;;;;;5045045;28;19925;-72
2023/01/20 10:01:33;;;;;;;;;;;3.80;99.90;;;;;;5042360;28;19983;-72
2023/01/20 10:04:05;;;;;;;;;;;3.60;99.90;;;;;;5030442;28;20031;-72
2023/01/20 10:06:34;;;;;;;;;;;3.80;99.90;;;;;;5041037;28;19913;-73
2023/01/20 10:09:13;;;;;;;;;;;4.10;99.90;;;;;;5037838;28;20365;-72
2023/01/20 10:11:40;;;;;;;;;;;4.10;99.90;;;;;;5034429;28;19956;-72
2023/01/20 10:14:14;;;;;;;;;;;4.00;99.90;;;;;;5042298;28;19955;-73
2023/01/20 10:16:51;;;;;;;;;;;4.00;99.90;;;;;;5037537;28;19908;-73
2023/01/20 10:19:25;;;;;;;;;;;4.10;99.90;;;;;;5038410;28;19905;-72
2023/01/20 10:22:12;;;;;;;;;;;3.90;99.90;;;;;;5032364;28;19916;-72
2023/01/20 10:24:46;;;;;;;;;;;3.80;99.90;;;;;;5041713;28;19921;-72
2023/01/20 10:27:11;;;;;;;;;;;3.90;99.90;;;;;;5042717;28;20426;-72
2023/01/20 10:29:40;;;;;;;;;;;4.30;99.90;;;;;;5040594;28;19909;-73
2023/01/20 10:32:13;;;;;;;;;;;4.30;99.90;;;;;;5042779;28;19913;-72
2023/01/20 10:34:45;;;;;;;;;;;4.10;99.90;;;;;;5025786;28;19909;-72
2023/01/20 10:37:11;;;;;;;;;;;4.00;99.90;;;;;;5031375;28;19971;-72
2023/01/20 10:39:41;;;;;;;;;;;3.30;99.90;;;;;;5044232;28;20328;-72
2023/01/20 10:42:11;;;;;;;;;;;3.60;99.90;;;;;;5040651;28;19913;-72
2023/01/20 10:44:37;;;;;;;;;;;3.90;99.90;;;;;;5037799;28;19912;-72
2023/01/20 10:47:11;;;;;;;;;;;3.60;99.90;;;;;;5027107;28;19919;-72
2023/01/20 10:49:46;;;;;;;;;;;3.80;99.90;;;;;;5027754;28;19964;-72
2023/01/20 10:52:17;;;;;;;;;;;3.70;99.90;;;;;;5043653;28;20283;-72
2023/01/20 10:54:49;;;;;;;;;;;3.40;99.90;;;;;;5033785;28;19938;-73
2023/01/20 10:57:15;;;;;;;;;;;3.50;99.90;;;;;;5034336;28;19992;-74
2023/01/20 10:59:46;;;;;;;;;;;3.70;99.90;;;;;;5043164;28;20007;-73
2023/01/20 11:02:29;;;;;;;;;;;3.90;99.90;;;;;;5028524;28;19909;-72
2023/01/20 11:04:59;;;;;;;;;;;3.60;99.90;;;;;;5038003;28;20737;-72
2023/01/20 11:07:26;;;;;;;;;;;3.50;99.90;;;;;;5038116;28;19905;-72
2023/01/20 11:09:51;;;;;;;;;;;3.50;99.90;;;;;;5025348;28;20291;-73
2023/01/20 11:12:21;;;;;;;;;;;3.70;99.90;;;;;;5035748;28;19916;-72
2023/01/20 11:14:47;;;;;;;;;;;3.80;99.90;;;;;;5043752;28;20250;-73
2023/01/20 11:17:17;;;;;;;;;;;3.50;99.90;;;;;;5043825;28;19915;-72
2023/01/20 11:19:48;;;;;;;;;;;3.60;99.90;;;;;;5032870;28;19908;-72
2023/01/20 11:22:19;;;;;;;;;;;3.40;99.90;;;;;;5039825;28;19908;-73
2023/01/20 11:24:45;;;;;;;;;;;3.50;99.90;;;;;;5043140;28;19908;-74
2023/01/20 11:27:19;;;;;;;;;;;3.30;99.90;;;;;;5043626;28;20216;-73
2023/01/20 11:29:48;;;;;;;;;;;3.50;99.90;;;;;;5038221;28;19913;-72
2023/01/20 11:32:25;;;;;;;;;;;3.50;99.90;;;;;;5042579;28;19913;-72
2023/01/20 11:34:51;;;;;;;;;;;3.60;99.90;;;;;;5037057;28;19909;-73
2023/01/20 11:37:18;;;;;;;;;;;3.70;99.90;;;;;;5037934;28;19920;-73
2023/01/20 11:39:56;;;;;;;;;;;3.90;99.90;;;;;;5024648;28;19909;-73
2023/01/20 11:42:23;;;;;;;;;;;3.90;99.90;;;;;;5031285;28;19909;-72
2023/01/20 11:44:52;;;;;;;;;;;4.00;99.90;;;;;;5032012;28;20000;-72
2023/01/20 11:47:23;;;;;;;;;;;3.90;99.90;;;;;;5043131;28;19912;-72
2023/01/20 11:50:04;;;;;;;;;;;4.10;99.90;;;;;;5031773;28;20269;-72
2023/01/20 11:52:36;;;;;;;;;;;4.30;99.90;;;;;;5026727;28;20861;-73
2023/01/20 11:55:08;;;;;;;;;;;4.50;99.90;;;;;;5041796;28;19948;-72
2023/01/20 11:57:33;;;;;;;;;;;4.50;99.90;;;;;;5038653;28;19909;-73
2023/01/20 11:59:59;;;;;;;;;;;4.70;99.90;;;;;;5041762;28;19972;-72
2023/01/20 12:02:27;;;;;;;;;;;5.00;99.90;;;;;;5043079;28;19986;-75
2023/01/20 12:05:12;;;;;;;;;;;5.40;99.90;;;;;;5038032;28;20479;-73
2023/01/20 12:07:46;;;;;;;;;;;5.30;99.90;;;;;;5034117;28;19908;-73
2023/01/20 12:10:22;;;;;;;;;;;5.30;99.90;;;;;;5030306;28;19913;-73
2023/01/20 12:12:53;;;;;;;;;;;5.40;99.90;;;;;;5042536;28;19908;-72
2023/01/20 12:15:19;;;;;;;;;;;5.50;99.90;;;;;;5036328;28;19908;-73
2023/01/20 12:17:47;;;;;;;;;;;5.20;99.90;;;;;;5036571;28;19912;-73
2023/01/20 12:20:22;;;;;;;;;;;5.00;99.90;;;;;;5042865;28;19913;-72
2023/01/20 12:23:06;;;;;;;;;;;5.20;99.90;;;;;;5042547;28;19948;-72
2023/01/20 12:25:42;;;;;;;;;;;5.30;99.90;;;;;;5042965;28;20016;-73
2023/01/20 12:28:26;;;;;;;;;;;5.10;99.90;;;;;;5038151;28;19908;-73
2023/01/20 12:30:57;;;;;;;;;;;4.70;99.90;;;;;;5036636;28;19917;-73
2023/01/20 12:33:27;;;;;;;;;;;4.10;99.90;;;;;;5038802;28;20279;-73
2023/01/20 12:35:53;;;;;;;;;;;4.40;99.90;;;;;;5039385;28;19909;-72
2023/01/20 12:38:19;;;;;;;;;;;4.30;99.90;;;;;;5028436;28;19919;-73
2023/01/20 12:40:50;;;;;;;;;;;4.40;99.90;;;;;;5034060;28;19944;-73
2023/01/20 12:43:25;;;;;;;;;;;4.90;99.90;;;;;;5046706;28;19931;-73
2023/01/20 12:46:10;;;;;;;;;;;4.70;99.90;;;;;;5043715;28;19905;-73
2023/01/20 12:48:47;;;;;;;;;;;4.60;99.90;;;;;;5034308;28;19966;-73
2023/01/20 12:51:31;;;;;;;;;;;4.30;99.90;;;;;;5045982;28;19962;-72
2023/01/20 12:53:57;;;;;;;;;;;4.40;99.90;;;;;;5046602;28;19912;-72
2023/01/20 12:56:31;;;;;;;;;;;3.80;99.90;;;;;;5046451;28;20007;-72
2023/01/20 12:58:57;;;;;;;;;;;3.60;99.90;;;;;;5042226;28;20297;-72
2023/01/20 13:01:41;;;;;;;;;;;3.50;99.90;;;;;;5037789;28;19905;-73
2023/01/20 13:04:26;;;;;;;;;;;3.50;99.90;;;;;;5032444;28;19920;-72
2023/01/20 13:06:55;;;;;;;;;;;3.70;99.90;;;;;;5023825;28;19909;-72
2023/01/20 13:09:26;;;;;;;;;;;4.10;99.90;;;;;;5043258;28;19963;-74
2023/01/20 13:12:10;;;;;;;;;;;4.30;99.90;;;;;;5040520;28;19909;-73
2023/01/20 13:14:42;;;;;;;;;;;4.20;99.90;;;;;;5033951;28;19962;-73
2023/01/20 13:17:10;;;;;;;;;;;4.00;99.90;;;;;;5039402;28;20311;-72
2023/01/20 13:19:37;;;;;;;;;;;4.00;99.90;;;;;;5038622;28;19908;-72
2023/01/20 13:22:13;;;;;;;;;;;3.70;99.90;;;;;;5041509;28;19915;-73
2023/01/20 13:24:42;;;;;;;;;;;3.90;99.90;;;;;;5043565;28;19919;-73
2023/01/20 13:27:08;;;;;;;;;;;3.80;99.90;;;;;;5039468;28;19946;-73
2023/01/20 13:29:34;;;;;;;;;;;3.90;99.90;;;;;;5040736;28;19909;-74
2023/01/20 13:31:59;;;;;;;;;;;4.40;99.90;;;;;;5041599;28;19913;-74
2023/01/20 13:34:25;;;;;;;;;;;4.80;99.90;;;;;;5045328;28;19908;-74
2023/01/20 13:37:03;;;;;;;;;;;5.00;99.90;;;;;;5043658;28;20379;-74
2023/01/20 13:39:39;;;;;;;;;;;4.40;99.90;;;;;;5050769;28;19904;-73
2023/01/20 13:42:23;;;;;;;;;;;4.20;99.90;;;;;;5028985;28;19941;-72
2023/01/20 13:45:08;;;;;;;;;;;4.30;99.90;;;;;;5028467;28;19959;-73
2023/01/20 13:47:46;;;;;;;;;;;4.00;99.90;;;;;;5027897;28;20695;-73
2023/01/20 13:50:31;;;;;;;;;;;3.70;99.90;;;;;;5040586;28;19924;-73
2023/01/20 13:53:04;;;;;;;;;;;3.50;99.90;;;;;;5030129;28;20580;-73
2023/01/20 13:55:47;;;;;;;;;;;3.80;99.90;;;;;;5038724;28;19909;-74
2023/01/20 13:58:14;;;;;;;;;;;4.10;99.90;;;;;;5038085;28;19967;-73
2023/01/20 14:00:40;;;;;;;;;;;4.20;99.90;;;;;;5044917;28;19909;-73
2023/01/20 14:03:18;;;;;;;;;;;4.10;99.90;;;;;;5018128;28;19908;-74
2023/01/20 14:05:56;;;;;;;;;;;4.00;99.90;;;;;;5036219;28;19909;-73
2023/01/20 14:08:23;;;;;;;;;;;4.00;99.90;;;;;;5036515;28;19904;-72
2023/01/20 14:10:48;;;;;;;;;;;3.90;99.90;;;;;;5037322;28;19917;-72
2023/01/20 14:13:19;;;;;;;;;;;3.80;99.90;;;;;;5033637;28;19911;-73
2023/01/20 14:15:47;;;;;;;;;;;3.80;99.90;;;;;;5042058;28;20466;-73
2023/01/20 14:18:14;;;;;;;;;;;3.90;99.90;;;;;;5040991;28;19912;-72
2023/01/20 14:20:40;;;;;;;;;;;3.80;99.90;;;;;;5035281;28;20007;-73
2023/01/20 14:23:25;;;;;;;;;;;3.90;99.90;;;;;;5044126;28;20015;-74
2023/01/20 14:26:05;;;;;;;;;;;3.80;99.90;;;;;;5044552;28;19974;-75
2023/01/20 14:28:30;;;;;;;;;;;3.50;99.90;;;;;;5034175;28;19916;-74
2023/01/20 14:31:15;;;;;;;;;;;3.40;99.90;;;;;;5043551;28;19913;-73
2023/01/20 14:33:48;;;;;;;;;;;3.40;99.90;;;;;;5042106;28;19913;-75